createdAt,value
2023-10-18T00:01:05.804Z,2.51
2023-10-18T00:03:34.177Z,2.49
2023-10-18T00:06:12.835Z,2.43
2023-10-18T00:08:40.378Z,2.39
2023-10-18T00:11:07.467Z,2.39
2023-10-18T00:13:35.110Z,2.40
2023-10-18T00:16:04.158Z,2.35
2023-10-18T00:18:31.399Z,2.31
2023-10-18T00:21:01.057Z,2.28
2023-10-18T00:23:28.761Z,2.27
2023-10-18T00:25:55.924Z,2.29
2023-10-18T00:28:23.232Z,2.25
2023-10-18T00:30:53.226Z,2.24
2023-10-18T00:33:20.617Z,2.20
2023-10-18T00:35:54.619Z,2.18
2023-10-18T00:38:25.460Z,2.19
2023-10-18T00:40:52.760Z,2.13
2023-10-18T00:43:27.968Z,2.10
2023-10-18T00:45:56.549Z,2.11
2023-10-18T00:48:28.812Z,2.06
2023-10-18T00:51:00.290Z,2.05
2023-10-18T00:53:31.875Z,2.06
2023-10-18T00:56:02.411Z,2.06
2023-10-18T00:58:33.412Z,2.03
2023-10-18T01:01:11.924Z,1.98
2023-10-18T01:03:40.352Z,1.95
2023-10-18T01:06:10.169Z,1.94
2023-10-18T01:08:40.638Z,1.94
2023-10-18T01:11:08.907Z,1.92
2023-10-18T01:13:49.186Z,1.91
2023-10-18T01:16:24.536Z,1.91
2023-10-18T01:18:53.994Z,1.89
2023-10-18T01:21:22.021Z,1.85
2023-10-18T01:24:00.811Z,1.85
2023-10-18T01:26:30.093Z,1.80
2023-10-18T01:28:59.640Z,1.74
2023-10-18T01:31:27.629Z,1.69
2023-10-18T01:33:55.126Z,1.66
2023-10-18T01:36:23.126Z,1.66
2023-10-18T01:38:56.380Z,1.67
2023-10-18T01:41:27.282Z,1.64
2023-10-18T01:44:08.991Z,1.63
2023-10-18T01:46:37.722Z,1.64
2023-10-18T01:49:08.453Z,1.67
2023-10-18T01:51:35.957Z,1.68
2023-10-18T01:54:14.364Z,1.65
2023-10-18T01:56:43.547Z,1.63
2023-10-18T01:59:19.000Z,1.61
2023-10-18T02:01:46.967Z,1.61
2023-10-18T02:04:33.098Z,1.57
2023-10-18T02:07:08.718Z,1.56
2023-10-18T02:09:45.452Z,1.57
2023-10-18T02:12:13.381Z,1.58
2023-10-18T02:14:40.563Z,1.56
2023-10-18T02:17:11.283Z,1.55
2023-10-18T02:19:39.406Z,1.53
2023-10-18T02:22:09.398Z,1.48
2023-10-18T02:24:37.376Z,1.48
2023-10-18T02:27:04.816Z,1.44
2023-10-18T02:29:35.881Z,1.41
2023-10-18T02:32:22.195Z,1.42
2023-10-18T02:34:51.299Z,1.46
2023-10-18T02:37:21.165Z,1.44
2023-10-18T02:40:02.600Z,1.41
2023-10-18T02:42:34.182Z,1.36
2023-10-18T02:45:02.265Z,1.33
2023-10-18T02:47:31.166Z,1.31
2023-10-18T02:49:59.872Z,1.29
2023-10-18T02:52:31.130Z,1.26
2023-10-18T02:54:58.718Z,1.27
2023-10-18T02:57:26.151Z,1.28
2023-10-18T02:59:53.455Z,1.27
2023-10-18T03:02:25.456Z,1.25
2023-10-18T03:07:22.828Z,1.18
2023-10-18T03:09:53.122Z,1.16
2023-10-18T03:12:23.462Z,1.16
2023-10-18T03:14:56.833Z,1.13
2023-10-18T03:17:30.507Z,1.15
2023-10-18T03:19:58.452Z,1.13
2023-10-18T03:22:33.178Z,1.10
2023-10-18T03:25:01.070Z,1.11
2023-10-18T03:27:32.153Z,1.08
2023-10-18T03:29:59.910Z,1.11
2023-10-18T03:32:28.056Z,1.14
2023-10-18T03:34:55.556Z,1.20
2023-10-18T03:37:22.906Z,1.23
2023-10-18T03:39:56.653Z,1.25
2023-10-18T03:42:32.920Z,1.25
2023-10-18T03:45:14.741Z,1.24
2023-10-18T03:47:43.122Z,1.23
2023-10-18T03:50:16.476Z,1.22
2023-10-18T03:52:46.631Z,1.23
2023-10-18T03:55:19.100Z,1.25
2023-10-18T03:57:46.763Z,1.25
2023-10-18T04:00:29.725Z,1.26
2023-10-18T04:03:11.947Z,1.24
2023-10-18T04:05:45.676Z,1.19
2023-10-18T04:08:17.476Z,1.17
2023-10-18T04:10:56.581Z,1.17
2023-10-18T04:13:25.670Z,1.11
2023-10-18T04:16:00.897Z,1.10
2023-10-18T04:18:31.279Z,1.06
2023-10-18T04:21:01.561Z,1.04
2023-10-18T04:23:28.858Z,1.04
2023-10-18T04:26:00.279Z,1.04
2023-10-18T04:28:31.233Z,1.03
2023-10-18T04:31:01.820Z,1.02
2023-10-18T04:33:46.386Z,1.01
2023-10-18T04:36:14.507Z,0.99
2023-10-18T04:38:46.390Z,0.98
2023-10-18T04:41:25.445Z,0.96
2023-10-18T04:44:02.479Z,0.98
2023-10-18T04:46:30.768Z,1.01
2023-10-18T04:49:00.927Z,1.00
2023-10-18T04:51:30.059Z,1.04
2023-10-18T04:53:58.796Z,1.03
2023-10-18T04:56:45.350Z,0.95
2023-10-18T04:59:20.445Z,0.94
2023-10-18T05:01:55.408Z,0.96
2023-10-18T05:04:34.593Z,0.97
2023-10-18T05:07:16.353Z,1.00
2023-10-18T05:09:45.449Z,1.02
2023-10-18T05:12:21.108Z,1.01
2023-10-18T05:14:58.997Z,1.02
2023-10-18T05:17:34.091Z,1.03
2023-10-18T05:20:19.316Z,1.08
2023-10-18T05:22:50.212Z,1.06
2023-10-18T05:25:20.466Z,1.09
2023-10-18T05:28:01.526Z,1.10
2023-10-18T05:30:49.713Z,1.14
2023-10-18T05:33:30.982Z,1.09
2023-10-18T05:36:14.051Z,1.07
2023-10-18T05:38:47.928Z,1.05
2023-10-18T05:41:27.619Z,1.06
2023-10-18T05:43:59.850Z,1.06
2023-10-18T05:46:33.110Z,1.06
2023-10-18T05:49:14.785Z,1.06
2023-10-18T05:52:01.817Z,1.02
2023-10-18T05:54:30.149Z,1.00
2023-10-18T05:56:57.645Z,0.98
2023-10-18T05:59:34.270Z,0.99
2023-10-18T06:02:22.036Z,1.01
2023-10-18T06:04:50.242Z,1.01
2023-10-18T06:10:09.514Z,1.13
2023-10-18T06:12:41.781Z,1.20
2023-10-18T06:15:16.688Z,1.26
2023-10-18T06:17:48.803Z,1.30
2023-10-18T06:20:31.945Z,1.33
2023-10-18T06:23:09.609Z,1.33
2023-10-18T06:25:39.323Z,1.33
2023-10-18T06:28:08.683Z,1.37
2023-10-18T06:30:42.692Z,1.39
2023-10-18T06:33:16.881Z,1.42
2023-10-18T06:35:44.693Z,1.41
2023-10-18T06:38:18.327Z,1.45
2023-10-18T06:41:04.689Z,1.48
2023-10-18T06:43:34.113Z,1.53
2023-10-18T06:46:01.910Z,1.59
2023-10-18T06:48:32.041Z,1.63
2023-10-18T06:50:59.589Z,1.68
2023-10-18T06:53:30.901Z,1.78
2023-10-18T06:56:03.510Z,1.85
2023-10-18T06:58:31.423Z,1.94
2023-10-18T07:01:05.746Z,2.02
2023-10-18T07:03:35.206Z,2.11
2023-10-18T07:06:05.615Z,2.17
2023-10-18T07:08:35.892Z,2.26
2023-10-18T07:11:19.016Z,2.36
2023-10-18T07:13:48.509Z,2.46
2023-10-18T07:16:40.237Z,2.56
2023-10-18T07:19:28.494Z,2.66
2023-10-18T07:21:56.550Z,2.79
2023-10-18T07:24:33.637Z,2.91
2023-10-18T07:27:10.179Z,3.07
2023-10-18T07:29:38.334Z,3.21
2023-10-18T07:32:08.565Z,3.34
2023-10-18T07:34:37.937Z,3.46
2023-10-18T07:37:24.627Z,3.59
2023-10-18T07:39:57.944Z,3.73
2023-10-18T07:42:27.764Z,3.87
2023-10-18T07:44:56.769Z,4.00
2023-10-18T07:47:27.282Z,4.16
2023-10-18T07:49:59.290Z,4.31
2023-10-18T07:52:27.421Z,4.47
2023-10-18T07:54:54.730Z,4.61
2023-10-18T07:57:30.969Z,4.74
2023-10-18T08:00:18.166Z,4.88
2023-10-18T08:02:45.554Z,5.01
2023-10-18T08:05:13.376Z,5.14
2023-10-18T08:07:40.738Z,5.25
2023-10-18T08:10:10.132Z,5.35
2023-10-18T08:12:37.351Z,5.46
2023-10-18T08:15:15.217Z,5.58
2023-10-18T08:17:45.651Z,5.72
2023-10-18T08:20:25.474Z,5.86
2023-10-18T08:22:52.788Z,6.06
2023-10-18T08:25:23.265Z,6.23
2023-10-18T08:27:53.751Z,6.42
2023-10-18T08:30:40.246Z,6.60
2023-10-18T08:33:07.640Z,6.81
2023-10-18T08:35:35.554Z,7.00
2023-10-18T08:38:02.968Z,7.16
2023-10-18T08:40:36.542Z,7.31
2023-10-18T08:43:13.585Z,7.48
2023-10-18T08:45:50.016Z,7.62
2023-10-18T08:48:18.826Z,7.72
2023-10-18T08:50:47.801Z,7.84
2023-10-18T08:53:16.445Z,7.94
2023-10-18T08:55:45.177Z,8.04
2023-10-18T08:58:21.401Z,8.09
2023-10-18T09:00:48.592Z,8.19
2023-10-18T09:03:16.141Z,8.28
2023-10-18T09:05:43.600Z,8.41
2023-10-18T09:08:20.366Z,8.53
2023-10-18T09:10:55.935Z,8.61
2023-10-18T09:13:25.745Z,8.61
2023-10-18T09:16:02.743Z,8.67
2023-10-18T09:18:34.385Z,8.74
2023-10-18T09:21:13.784Z,8.84
2023-10-18T09:23:42.112Z,8.94
2023-10-18T09:26:12.109Z,9.06
2023-10-18T09:28:43.107Z,9.15
2023-10-18T09:31:22.516Z,9.25
2023-10-18T09:33:51.183Z,9.35
2023-10-18T09:36:22.117Z,9.37
2023-10-18T09:38:50.065Z,9.36
2023-10-18T09:41:18.519Z,9.47
2023-10-18T09:43:47.939Z,9.55
2023-10-18T09:46:16.772Z,9.68
2023-10-18T09:48:45.681Z,9.80
2023-10-18T09:51:17.536Z,9.91
2023-10-18T09:53:50.600Z,10.02
2023-10-18T09:56:26.008Z,10.15
2023-10-18T09:59:05.535Z,10.25
2023-10-18T10:01:45.349Z,10.25
2023-10-18T10:04:15.725Z,10.38
2023-10-18T10:06:46.922Z,10.49
2023-10-18T10:09:18.720Z,10.57
2023-10-18T10:11:48.410Z,10.69
2023-10-18T10:14:23.022Z,10.82
2023-10-18T10:17:02.952Z,10.89
2023-10-18T10:19:33.815Z,10.85
2023-10-18T10:22:07.715Z,10.88
2023-10-18T10:24:43.563Z,10.85
2023-10-18T10:27:34.327Z,10.88
2023-10-18T10:30:12.510Z,10.99
2023-10-18T10:32:40.440Z,11.05
2023-10-18T10:35:25.377Z,11.10
2023-10-18T10:37:54.099Z,11.12
2023-10-18T10:40:31.907Z,10.95
2023-10-18T10:43:15.888Z,10.99
2023-10-18T10:45:48.115Z,11.08
2023-10-18T10:48:26.944Z,11.12
2023-10-18T10:51:21.261Z,11.18
2023-10-18T10:53:58.889Z,11.11
2023-10-18T10:56:28.170Z,11.11
2023-10-18T10:59:05.402Z,11.15
2023-10-18T11:01:45.383Z,11.28
2023-10-18T11:04:25.860Z,11.34
2023-10-18T11:07:02.254Z,11.29
2023-10-18T11:09:34.264Z,11.33
2023-10-18T11:12:09.234Z,11.41
2023-10-18T11:14:39.554Z,11.48
2023-10-18T11:17:18.935Z,11.50
2023-10-18T11:19:54.727Z,11.53
2023-10-18T11:22:24.259Z,11.54
2023-10-18T11:24:52.400Z,11.54
2023-10-18T11:27:23.596Z,11.54
2023-10-18T11:30:05.244Z,11.54
2023-10-18T11:32:32.640Z,11.61
2023-10-18T11:35:14.282Z,11.63
2023-10-18T11:37:45.825Z,11.66
2023-10-18T11:40:32.374Z,11.77
2023-10-18T11:43:09.978Z,11.82
2023-10-18T11:45:41.670Z,11.86
2023-10-18T11:48:15.616Z,11.92
2023-10-18T11:50:52.038Z,11.94
2023-10-18T11:53:24.353Z,12.02
2023-10-18T11:56:06.176Z,12.09
2023-10-18T11:58:35.312Z,12.19
2023-10-18T12:01:17.625Z,12.21
2023-10-18T12:03:45.513Z,12.14
2023-10-18T12:06:13.026Z,12.25
2023-10-18T12:09:03.256Z,12.29
2023-10-18T12:11:30.347Z,12.34
2023-10-18T12:13:57.442Z,12.43
2023-10-18T12:16:24.742Z,12.44
2023-10-18T12:18:53.394Z,12.42
2023-10-18T12:21:30.381Z,12.39
2023-10-18T12:23:58.239Z,12.38
2023-10-18T12:26:28.553Z,12.35
2023-10-18T12:28:58.241Z,12.41
2023-10-18T12:31:28.315Z,12.38
2023-10-18T12:34:00.268Z,12.40
2023-10-18T12:36:39.788Z,12.38
2023-10-18T12:39:11.039Z,12.39
2023-10-18T12:41:41.345Z,12.36
2023-10-18T12:44:12.887Z,12.31
2023-10-18T12:46:42.302Z,12.25
2023-10-18T12:49:12.593Z,12.27
2023-10-18T12:51:43.469Z,12.33
2023-10-18T12:54:21.239Z,12.33
2023-10-18T12:57:09.063Z,12.28
2023-10-18T12:59:59.726Z,12.27
2023-10-18T13:02:45.684Z,12.36
2023-10-18T13:05:13.372Z,12.41
2023-10-18T13:07:45.336Z,12.42
2023-10-18T13:10:13.476Z,12.42
2023-10-18T13:12:55.006Z,12.44
2023-10-18T13:15:27.051Z,12.44
2023-10-18T13:17:54.293Z,12.46
2023-10-18T13:20:26.022Z,12.45
2023-10-18T13:22:57.489Z,12.41
2023-10-18T13:25:38.141Z,12.38
2023-10-18T13:28:06.920Z,12.30
2023-10-18T13:30:40.911Z,12.30
2023-10-18T13:33:14.120Z,12.21
2023-10-18T13:35:41.459Z,12.20
2023-10-18T13:38:09.221Z,12.17
2023-10-18T13:40:38.159Z,12.19
2023-10-18T13:43:06.445Z,12.24
2023-10-18T13:45:34.767Z,12.24
2023-10-18T13:48:03.809Z,12.22
2023-10-18T13:50:39.095Z,12.23
2023-10-18T13:53:08.244Z,12.25
2023-10-18T13:55:37.731Z,12.18
2023-10-18T13:58:07.632Z,12.21
2023-10-18T14:00:36.454Z,12.26
2023-10-18T14:03:04.231Z,12.28
2023-10-18T14:05:32.436Z,12.33
2023-10-18T14:08:00.215Z,12.35
2023-10-18T14:10:33.185Z,12.30
2023-10-18T14:13:00.323Z,12.35
2023-10-18T14:15:28.188Z,12.33
2023-10-18T14:17:56.224Z,12.38
2023-10-18T14:20:26.745Z,12.26
2023-10-18T14:22:57.809Z,12.27
2023-10-18T14:25:26.750Z,12.21
2023-10-18T14:27:54.232Z,12.18
2023-10-18T14:30:21.882Z,12.16
2023-10-18T14:32:49.182Z,12.09
2023-10-18T14:35:18.050Z,12.05
2023-10-18T14:37:46.910Z,11.89
2023-10-18T14:40:14.351Z,11.75
2023-10-18T14:42:41.499Z,11.72
2023-10-18T14:45:13.232Z,11.63
2023-10-18T14:47:40.603Z,11.59
2023-10-18T14:50:08.269Z,11.66
2023-10-18T14:52:35.583Z,11.65
2023-10-18T14:55:05.727Z,11.60
2023-10-18T14:57:32.862Z,11.59
2023-10-18T14:59:59.999Z,11.54
2023-10-18T15:02:27.288Z,11.55
2023-10-18T15:04:54.468Z,11.45
2023-10-18T15:07:21.826Z,11.39
2023-10-18T15:09:48.967Z,11.39
2023-10-18T15:12:19.075Z,11.40
2023-10-18T15:14:46.352Z,11.35
2023-10-18T15:17:13.633Z,11.37
2023-10-18T15:19:41.613Z,11.38
2023-10-18T15:22:11.429Z,11.40
2023-10-18T15:24:44.462Z,11.37
2023-10-18T15:27:14.095Z,11.24
2023-10-18T15:29:41.433Z,11.16
2023-10-18T15:32:09.322Z,11.06
2023-10-18T15:34:36.935Z,10.97
2023-10-18T15:37:07.630Z,10.94
2023-10-18T15:39:35.063Z,10.82
2023-10-18T15:42:02.290Z,10.74
2023-10-18T15:44:31.683Z,10.72
2023-10-18T15:47:01.115Z,10.70
2023-10-18T15:49:29.969Z,10.62
2023-10-18T15:51:58.127Z,10.58
2023-10-18T15:54:25.286Z,10.46
2023-10-18T15:56:52.688Z,10.41
2023-10-18T15:59:20.191Z,10.15
2023-10-18T16:01:58.654Z,10.08
2023-10-18T16:04:28.964Z,10.04
2023-10-18T16:06:56.943Z,9.96
2023-10-18T16:09:24.272Z,9.93
2023-10-18T16:11:51.402Z,9.87
2023-10-18T16:14:18.530Z,9.89
2023-10-18T16:16:45.897Z,9.91
2023-10-18T16:19:13.192Z,9.90
2023-10-18T16:21:43.360Z,9.81
2023-10-18T16:24:10.964Z,9.71
2023-10-18T16:26:38.948Z,9.67
2023-10-18T16:29:07.216Z,9.67
2023-10-18T16:31:34.934Z,9.67
2023-10-18T16:34:02.257Z,9.67
2023-10-18T16:36:29.476Z,9.60
2023-10-18T16:38:58.290Z,9.42
2023-10-18T16:41:28.143Z,9.37
2023-10-18T16:43:55.945Z,9.35
2023-10-18T16:46:23.202Z,9.31
2023-10-18T16:48:51.322Z,9.22
2023-10-18T16:51:18.934Z,9.12
2023-10-18T16:53:47.419Z,9.06
2023-10-18T16:56:15.868Z,9.05
2023-10-18T16:58:43.376Z,9.07
2023-10-18T17:01:18.404Z,9.06
2023-10-18T17:03:48.550Z,9.00
2023-10-18T17:06:17.170Z,9.03
2023-10-18T17:08:45.479Z,9.02
2023-10-18T17:11:14.393Z,8.99
2023-10-18T17:13:45.942Z,8.97
2023-10-18T17:16:18.944Z,8.93
2023-10-18T17:18:46.704Z,8.87
2023-10-18T17:23:45.201Z,8.77
2023-10-18T17:26:13.136Z,8.71
2023-10-18T17:28:40.626Z,8.65
2023-10-18T17:31:07.768Z,8.61
2023-10-18T17:33:34.936Z,8.55
2023-10-18T17:36:02.227Z,8.58
2023-10-18T17:38:29.440Z,8.59
2023-10-18T17:40:56.605Z,8.59
2023-10-18T17:43:23.841Z,8.64
2023-10-18T17:45:51.476Z,8.63
2023-10-18T17:48:19.249Z,8.67
2023-10-18T17:50:47.663Z,8.68
2023-10-18T17:53:15.702Z,8.69
2023-10-18T17:55:44.275Z,8.68
2023-10-18T17:58:14.471Z,8.68
2023-10-18T18:00:45.528Z,8.68
2023-10-18T18:03:15.073Z,8.66
2023-10-18T18:05:45.619Z,8.62
2023-10-18T18:08:13.993Z,8.62
2023-10-18T18:10:49.306Z,8.62
2023-10-18T18:13:20.609Z,8.63
2023-10-18T18:15:50.526Z,8.60
2023-10-18T18:18:19.862Z,8.36
2023-10-18T18:20:50.119Z,8.34
2023-10-18T18:23:17.823Z,8.32
2023-10-18T18:25:47.288Z,8.31
2023-10-18T18:28:15.773Z,8.28
2023-10-18T18:30:45.131Z,8.33
2023-10-18T18:33:13.329Z,8.38
2023-10-18T18:35:41.831Z,8.38
2023-10-18T18:38:09.436Z,8.35
2023-10-18T18:40:37.260Z,8.37
2023-10-18T18:43:04.569Z,8.41
2023-10-18T18:45:31.938Z,8.45
2023-10-18T18:47:59.147Z,8.48
2023-10-18T18:50:28.214Z,8.49
2023-10-18T18:52:55.390Z,8.48
2023-10-18T18:55:22.668Z,8.50
2023-10-18T18:57:51.798Z,8.52
2023-10-18T19:00:21.466Z,8.53
2023-10-18T19:02:52.445Z,8.53
2023-10-18T19:05:20.114Z,8.53
2023-10-18T19:07:47.550Z,8.54
2023-10-18T19:10:16.222Z,8.50
2023-10-18T19:12:44.402Z,8.52
2023-10-18T19:15:12.378Z,8.56
2023-10-18T19:17:40.266Z,8.59
2023-10-18T19:20:12.715Z,8.52
2023-10-18T19:22:40.708Z,8.52
2023-10-18T19:25:08.130Z,8.52
2023-10-18T19:27:35.820Z,8.52
2023-10-18T19:30:11.098Z,8.57
2023-10-18T19:32:39.343Z,8.59
2023-10-18T19:35:10.564Z,8.62
2023-10-18T19:37:38.892Z,8.65
2023-10-18T19:40:08.307Z,8.68
2023-10-18T19:42:37.214Z,8.73
2023-10-18T19:45:05.069Z,8.70
2023-10-18T19:47:32.676Z,8.70
2023-10-18T19:50:03.660Z,8.71
2023-10-18T19:52:31.044Z,8.75
2023-10-18T19:54:59.258Z,8.76
2023-10-18T19:57:27.282Z,8.71
2023-10-18T19:59:55.160Z,8.75
2023-10-18T20:02:22.452Z,8.79
2023-10-18T20:04:49.628Z,8.75
2023-10-18T20:07:17.057Z,8.80
2023-10-18T20:09:45.069Z,8.79
2023-10-18T20:12:12.678Z,8.78
2023-10-18T20:14:39.908Z,8.78
2023-10-18T20:17:10.160Z,8.76
2023-10-18T20:19:37.249Z,8.76
2023-10-18T20:22:05.908Z,8.71
2023-10-18T20:24:33.123Z,8.81
2023-10-18T20:27:00.424Z,8.86
2023-10-18T20:29:27.571Z,8.83
2023-10-18T20:31:55.233Z,8.83
2023-10-18T20:34:23.276Z,8.81
2023-10-18T20:36:50.409Z,8.76
2023-10-18T20:39:18.524Z,8.69
2023-10-18T20:41:46.267Z,8.71
2023-10-18T20:44:19.853Z,8.67
2023-10-18T20:46:49.852Z,8.70
2023-10-18T20:49:23.650Z,8.73
2023-10-18T20:51:50.828Z,8.69
2023-10-18T20:54:21.385Z,8.69
2023-10-18T20:56:55.136Z,8.71
2023-10-18T20:59:32.617Z,8.71
2023-10-18T21:02:07.434Z,8.75
2023-10-18T21:04:34.855Z,8.76
2023-10-18T21:07:01.993Z,8.77
2023-10-18T21:09:32.206Z,8.77
2023-10-18T21:12:00.853Z,8.81
2023-10-18T21:14:28.289Z,8.78
2023-10-18T21:16:56.520Z,8.75
2023-10-18T21:19:23.930Z,8.80
2023-10-18T21:21:51.195Z,8.81
2023-10-18T21:24:18.290Z,8.85
2023-10-18T21:26:46.960Z,8.90
2023-10-18T21:29:14.272Z,8.92
2023-10-18T21:31:43.452Z,8.89
2023-10-18T21:34:10.756Z,8.88
2023-10-18T21:36:38.090Z,8.89
2023-10-18T21:39:07.407Z,8.88
2023-10-18T21:41:36.013Z,8.88
2023-10-18T21:44:04.973Z,8.86
2023-10-18T21:46:35.493Z,8.85
2023-10-18T21:49:02.952Z,8.81
2023-10-18T21:51:30.099Z,8.75
2023-10-18T21:53:57.946Z,8.71
2023-10-18T21:56:25.130Z,8.75
2023-10-18T21:58:52.560Z,8.75
2023-10-18T22:01:43.048Z,8.78
2023-10-18T22:04:10.773Z,8.77
2023-10-18T22:06:40.084Z,8.76
2023-10-18T22:09:32.616Z,8.74
2023-10-18T22:12:05.876Z,8.79
2023-10-18T22:14:33.202Z,8.79
2023-10-18T22:17:06.572Z,8.80
2023-10-18T22:19:34.532Z,8.80
2023-10-18T22:22:21.246Z,8.74
2023-10-18T22:24:49.100Z,8.69
2023-10-18T22:27:20.132Z,8.65
2023-10-18T22:29:51.516Z,8.56
2023-10-18T22:32:20.723Z,8.59
2023-10-18T22:34:51.638Z,8.61
2023-10-18T22:37:22.013Z,8.62
2023-10-18T22:39:53.234Z,8.64
2023-10-18T22:42:24.541Z,8.56
2023-10-18T22:45:10.294Z,8.60
2023-10-18T22:47:52.265Z,8.65
2023-10-18T22:50:39.217Z,8.69
2023-10-18T22:53:24.841Z,8.63
2023-10-18T22:55:57.907Z,8.43
2023-10-18T22:58:27.768Z,8.46
2023-10-18T23:00:55.059Z,8.48
2023-10-18T23:03:25.889Z,8.45
2023-10-18T23:06:08.901Z,8.40
2023-10-18T23:08:39.444Z,8.40
2023-10-18T23:11:34.504Z,8.35
2023-10-18T23:14:10.368Z,8.34
2023-10-18T23:16:57.508Z,8.34
2023-10-18T23:19:27.364Z,8.36
2023-10-18T23:21:58.297Z,8.36
2023-10-18T23:24:28.115Z,8.36
2023-10-18T23:27:13.906Z,8.38
2023-10-18T23:29:41.446Z,8.35
2023-10-18T23:32:30.613Z,8.36
2023-10-18T23:35:21.736Z,8.40
2023-10-18T23:37:55.947Z,8.47
2023-10-18T23:40:27.290Z,8.45
2023-10-18T23:43:10.580Z,8.44
2023-10-18T23:45:42.431Z,8.41
2023-10-18T23:48:28.344Z,8.42
2023-10-18T23:51:14.229Z,8.51
2023-10-18T23:53:47.344Z,8.53
2023-10-18T23:56:15.229Z,8.57
2023-10-18T23:58:43.387Z,8.58
